Airfield :
LOGIN :

Register | Disclaimer

   EN    FR    IT 

 










Legend :    VFR   Marginal VFR   IFR   Intensive IFR   Very Intensive IFR
Visi :
Ceiling :
>= 8 km
>= 3000ft
5 to 8 km
1000 to 3000 ft
1500m to 5 km
500 to 1000 ft
800 to 1500m
200 to 500 ft
< 800m
< 200 ft
Symbols :   Thunderstorms  Fog  Heavy snow  Heavy precipitations  Wind > 20 kt
SIGMETs :     Misc.  Thunderstorms  Icing  Turbulence  Mountain Waves  Volcanic Ashes






- Airport Elevation : 28 ft
- IATA code : SOZ


LFKS - Solenzara

CURRENT METAR :
  • 052130Z AUTO 28006KT CAVOK 23/12 Q1013

EXPIRED METARs :
  • 052100Z AUTO 29004KT 240V350 CAVOK 23/12 Q1013
  • 052030Z AUTO 27005KT 240V310 CAVOK 24/12 Q1013
  • 052000Z AUTO 28006KT 250V330 CAVOK 24/13 Q1012
  • 051930Z AUTO 28006KT 240V320 CAVOK 24/13 Q1012
  • 051900Z AUTO 28005KT CAVOK 24/14 Q1012
  • 051830Z AUTO 27004KT 240V300 CAVOK 25/15 Q1012

TAF AMD TAF LFKS
Valid from the 05 at 12:00 until the 06 at 09:00 UTC


051248Z 0512/0609 06010KT 9999 SCT070
BECMG 0519/0522 30005KT



MET'MAP, your aeronautical weather chart ! - Copyright ORBIFLY December 2007 - Disclaimer

ORBIFLY MET'MAP TEAM :

Programming & Development : Alexandra Zaïnal
Concept & original design : Baudouin d'Aumeries
Assistance for programming : Marc-Olivier Méhu
Technical & hardware support : Manuel Goepfert

Contact : metmap@orbifly.com




SOURCES & CREDITS :

   NOAA